createdAt,value
2023-02-11T00:01:49.506Z,20.77
2023-02-11T00:04:16.389Z,19.73
2023-02-11T00:06:43.097Z,19.90
2023-02-11T00:09:10.478Z,20.50
2023-02-11T00:11:37.170Z,20.63
2023-02-11T00:14:07.715Z,21.33
2023-02-11T00:16:34.716Z,17.98
2023-02-11T00:19:02.402Z,18.73
2023-02-11T00:21:29.768Z,20.80
2023-02-11T00:23:57.244Z,19.48
2023-02-11T00:26:26.852Z,20.17
2023-02-11T00:28:53.842Z,19.27
2023-02-11T00:31:22.258Z,20.02
2023-02-11T00:33:49.630Z,17.30
2023-02-11T00:36:19.425Z,20.50
2023-02-11T00:38:48.368Z,18.10
2023-02-11T00:41:15.526Z,19.73
2023-02-11T00:43:42.369Z,16.45
2023-02-11T00:46:09.305Z,16.33
2023-02-11T00:48:36.493Z,18.23
2023-02-11T00:51:04.179Z,18.67
2023-02-11T00:53:31.807Z,18.23
2023-02-11T00:55:58.499Z,20.73
2023-02-11T00:58:25.739Z,19.23
2023-02-11T01:00:52.651Z,16.13
2023-02-11T01:03:19.304Z,18.17
2023-02-11T01:05:45.993Z,18.42
2023-02-11T01:08:12.646Z,17.30
2023-02-11T01:10:39.299Z,19.25
2023-02-11T01:13:06.647Z,16.25
2023-02-11T01:15:33.921Z,19.23
2023-02-11T01:18:00.756Z,16.02
2023-02-11T01:20:28.488Z,15.60
2023-02-11T01:22:56.640Z,16.77
2023-02-11T01:25:23.385Z,15.68
2023-02-11T01:27:50.062Z,18.38
2023-02-11T01:30:16.701Z,17.15
2023-02-11T01:32:43.315Z,18.13
2023-02-11T01:35:10.120Z,15.93
2023-02-11T01:37:37.160Z,16.42
2023-02-11T01:40:07.140Z,15.98
2023-02-11T01:42:34.528Z,15.50
2023-02-11T01:45:04.129Z,17.38
2023-02-11T01:47:30.786Z,15.70
2023-02-11T01:49:59.519Z,17.02
2023-02-11T01:52:31.612Z,17.52
2023-02-11T01:55:23.313Z,16.17
2023-02-11T01:57:56.303Z,17.77
2023-02-11T02:00:37.992Z,16.70
2023-02-11T02:03:15.134Z,16.15
2023-02-11T02:06:02.272Z,15.68
2023-02-11T02:08:32.155Z,17.48
2023-02-11T02:11:00.988Z,16.10
2023-02-11T02:13:29.227Z,13.98
2023-02-11T02:16:16.318Z,16.40
2023-02-11T02:19:20.204Z,16.63
2023-02-11T02:22:16.812Z,16.08
2023-02-11T02:25:01.028Z,16.90
2023-02-11T02:27:45.968Z,15.55
2023-02-11T02:30:31.094Z,15.13
2023-02-11T02:33:22.439Z,15.70
2023-02-11T02:36:16.950Z,16.25
2023-02-11T02:39:04.913Z,16.75
2023-02-11T02:41:33.794Z,14.77
2023-02-11T02:44:00.557Z,10.73
2023-02-11T02:46:30.350Z,16.52
2023-02-11T02:49:00.129Z,16.73
2023-02-11T02:52:05.315Z,16.23
2023-02-11T02:54:44.188Z,17.08
2023-02-11T02:57:10.783Z,13.05
2023-02-11T02:59:55.582Z,15.85
2023-02-11T03:02:30.328Z,14.60
2023-02-11T03:05:11.964Z,14.15
2023-02-11T03:07:57.089Z,15.30
2023-02-11T03:10:28.434Z,13.88
2023-02-11T03:12:55.741Z,15.35
2023-02-11T03:15:23.543Z,14.80
2023-02-11T03:17:52.128Z,14.80
2023-02-11T03:20:20.508Z,16.15
2023-02-11T03:22:58.661Z,15.95
2023-02-11T03:25:37.569Z,16.25
2023-02-11T03:28:14.224Z,15.93
2023-02-11T03:30:47.860Z,16.08
2023-02-11T03:33:30.772Z,16.05
2023-02-11T03:36:00.707Z,15.50
2023-02-11T03:38:33.761Z,16.00
2023-02-11T03:41:01.476Z,13.30
2023-02-11T03:43:35.891Z,14.73
2023-02-11T03:46:03.626Z,16.05
2023-02-11T03:48:33.739Z,16.30
2023-02-11T03:51:03.293Z,17.48
2023-02-11T03:53:29.960Z,16.60
2023-02-11T03:55:58.522Z,16.70
2023-02-11T03:58:25.239Z,18.38
2023-02-11T04:00:52.261Z,16.92
2023-02-11T04:03:19.173Z,16.90
2023-02-11T04:05:45.996Z,15.75
2023-02-11T04:08:12.772Z,17.77
2023-02-11T04:10:39.441Z,16.27
2023-02-11T04:13:06.132Z,17.92
2023-02-11T04:15:32.956Z,17.58
2023-02-11T04:17:59.598Z,18.25
2023-02-11T04:20:26.245Z,16.85
2023-02-11T04:22:52.925Z,18.52
2023-02-11T04:25:19.596Z,14.30
2023-02-11T04:27:46.226Z,17.75
2023-02-11T04:30:13.429Z,18.85
2023-02-11T04:32:40.071Z,18.42
2023-02-11T04:35:06.980Z,19.13
2023-02-11T04:37:33.599Z,19.98
2023-02-11T04:40:00.221Z,18.40
2023-02-11T04:42:26.949Z,17.63
2023-02-11T04:44:53.588Z,18.23
2023-02-11T04:47:20.319Z,20.85
2023-02-11T04:49:46.928Z,18.95
2023-02-11T04:52:13.618Z,20.52
2023-02-11T04:54:40.578Z,20.30
2023-02-11T04:57:07.401Z,19.73
2023-02-11T04:59:34.099Z,18.52
2023-02-11T05:02:00.745Z,16.13
2023-02-11T05:04:27.496Z,20.73
2023-02-11T05:06:54.917Z,18.85
2023-02-11T05:09:22.267Z,20.05
2023-02-11T05:11:49.766Z,20.10
2023-02-11T05:14:16.557Z,18.60
2023-02-11T05:16:43.237Z,19.33
2023-02-11T05:19:10.210Z,19.83
2023-02-11T05:21:37.042Z,20.42
2023-02-11T05:24:03.873Z,19.73
2023-02-11T05:26:30.607Z,20.77
2023-02-11T05:28:57.232Z,19.92
2023-02-11T05:31:23.936Z,22.30
2023-02-11T05:33:50.632Z,16.38
2023-02-11T05:36:17.370Z,20.67
2023-02-11T05:38:44.056Z,21.35
2023-02-11T05:41:11.354Z,21.75
2023-02-11T05:43:38.023Z,22.02
2023-02-11T05:46:05.196Z,21.55
2023-02-11T05:48:32.385Z,23.17
2023-02-11T05:50:59.153Z,22.33
2023-02-11T05:53:25.773Z,23.42
2023-02-11T05:55:52.691Z,21.35
2023-02-11T05:58:19.474Z,21.60
2023-02-11T06:00:46.270Z,22.65
2023-02-11T06:03:12.953Z,21.58
2023-02-11T06:05:39.645Z,22.23
2023-02-11T06:08:06.287Z,21.10
2023-02-11T06:10:32.934Z,22.92
2023-02-11T06:12:59.541Z,22.77
2023-02-11T06:15:26.166Z,23.52
2023-02-11T06:17:52.876Z,22.98
2023-02-11T06:20:19.769Z,21.27
2023-02-11T06:22:46.576Z,22.63
2023-02-11T06:25:13.264Z,23.45
2023-02-11T06:27:39.937Z,22.63
2023-02-11T06:30:07.427Z,23.70
2023-02-11T06:32:49.541Z,23.48
2023-02-11T06:35:16.326Z,23.17
2023-02-11T06:37:43.119Z,22.13
2023-02-11T06:40:11.239Z,21.90
2023-02-11T06:42:39.160Z,23.30
2023-02-11T06:45:08.982Z,18.48
2023-02-11T06:47:35.649Z,20.23
2023-02-11T06:50:02.362Z,22.33
2023-02-11T06:52:29.009Z,24.95
2023-02-11T06:54:55.698Z,23.55
2023-02-11T06:57:22.366Z,22.10
2023-02-11T06:59:49.044Z,24.23
2023-02-11T07:02:15.830Z,20.00
2023-02-11T07:04:42.475Z,23.83
2023-02-11T07:07:09.169Z,23.20
2023-02-11T07:09:35.848Z,23.13
2023-02-11T07:12:02.480Z,26.02
2023-02-11T07:14:29.199Z,23.77
2023-02-11T07:16:55.844Z,24.50
2023-02-11T07:19:22.522Z,25.15
2023-02-11T07:21:49.151Z,25.38
2023-02-11T07:24:15.877Z,25.67
2023-02-11T07:26:42.683Z,26.77
2023-02-11T07:29:09.407Z,25.80
2023-02-11T07:31:36.169Z,26.77
2023-02-11T07:34:02.988Z,25.75
2023-02-11T07:36:32.816Z,27.83
2023-02-11T07:39:00.238Z,27.33
2023-02-11T07:41:27.183Z,21.00
2023-02-11T07:43:53.898Z,21.02
2023-02-11T07:46:26.035Z,22.83
2023-02-11T07:48:53.129Z,25.15
2023-02-11T07:51:22.953Z,27.27
2023-02-11T07:53:49.981Z,26.40
2023-02-11T07:56:17.404Z,26.88
2023-02-11T07:58:44.162Z,26.25
2023-02-11T08:01:13.743Z,25.27
2023-02-11T08:03:41.951Z,26.67
2023-02-11T08:06:16.603Z,27.05
2023-02-11T08:08:43.919Z,29.10
2023-02-11T08:11:16.334Z,27.40
2023-02-11T08:13:43.493Z,28.27
2023-02-11T08:16:11.700Z,24.65
2023-02-11T08:18:38.426Z,27.95
2023-02-11T08:21:06.619Z,27.85
2023-02-11T08:23:33.473Z,27.75
2023-02-11T08:26:04.506Z,26.73
2023-02-11T08:28:31.474Z,29.17
2023-02-11T08:30:58.233Z,23.75
2023-02-11T08:33:24.998Z,27.80
2023-02-11T08:35:51.622Z,27.88
2023-02-11T08:38:18.273Z,27.08
2023-02-11T08:40:44.896Z,25.80
2023-02-11T08:43:11.523Z,27.08
2023-02-11T08:45:38.204Z,28.17
2023-02-11T08:48:04.832Z,28.83
2023-02-11T08:50:32.246Z,26.80
2023-02-11T08:53:00.305Z,28.25
2023-02-11T08:55:26.947Z,27.30
2023-02-11T08:57:53.636Z,26.85
2023-02-11T09:00:20.767Z,26.67
2023-02-11T09:02:47.399Z,28.23
2023-02-11T09:05:14.009Z,28.05
2023-02-11T09:07:40.762Z,28.00
2023-02-11T09:10:08.123Z,27.83
2023-02-11T09:12:34.869Z,28.17
2023-02-11T09:15:01.569Z,22.80
2023-02-11T09:17:28.192Z,24.15
2023-02-11T09:19:54.802Z,28.75
2023-02-11T09:22:21.520Z,24.60
2023-02-11T09:24:51.063Z,26.13
2023-02-11T09:27:17.808Z,28.52
2023-02-11T09:29:44.414Z,28.38
2023-02-11T09:32:11.256Z,28.20
2023-02-11T09:34:38.042Z,28.67
2023-02-11T09:37:04.759Z,26.60
2023-02-11T09:39:31.379Z,28.13
2023-02-11T09:42:05.714Z,27.17
2023-02-11T09:44:34.486Z,25.45
2023-02-11T09:47:27.210Z,27.70
2023-02-11T09:50:01.617Z,27.42
2023-02-11T09:52:43.281Z,29.02
2023-02-11T09:55:23.469Z,26.65
2023-02-11T09:57:50.193Z,26.60
2023-02-11T10:00:28.835Z,28.75
2023-02-11T10:03:06.222Z,27.88
2023-02-11T10:05:35.845Z,29.33
2023-02-11T10:08:09.842Z,30.02
2023-02-11T10:10:45.497Z,28.20
2023-02-11T10:13:30.978Z,27.08
2023-02-11T10:16:22.450Z,25.73
2023-02-11T10:18:52.036Z,29.15
2023-02-11T10:21:43.715Z,28.55
2023-02-11T10:24:12.938Z,26.88
2023-02-11T10:26:40.451Z,28.23
2023-02-11T10:29:40.724Z,27.75
2023-02-11T10:32:30.239Z,28.85
2023-02-11T10:35:02.598Z,29.70
2023-02-11T10:37:30.239Z,26.63
2023-02-11T10:39:56.858Z,28.13
2023-02-11T10:42:23.522Z,28.23
2023-02-11T10:45:17.872Z,27.48
2023-02-11T10:47:44.468Z,27.13
2023-02-11T10:50:37.413Z,28.70
2023-02-11T10:53:20.525Z,21.38
2023-02-11T10:56:00.099Z,25.30
2023-02-11T10:58:29.424Z,29.13
2023-02-11T11:00:57.463Z,26.10
2023-02-11T11:03:29.427Z,29.92
2023-02-11T11:06:01.546Z,28.33
2023-02-11T11:08:51.672Z,27.35
2023-02-11T11:11:21.238Z,27.00
2023-02-11T11:13:53.841Z,27.70
2023-02-11T11:16:36.227Z,28.58
2023-02-11T11:19:08.890Z,25.77
2023-02-11T11:21:36.838Z,28.63
2023-02-11T11:24:04.149Z,28.02
2023-02-11T11:26:42.734Z,30.83
2023-02-11T11:29:14.676Z,28.45
2023-02-11T11:31:51.972Z,27.73
2023-02-11T11:34:32.635Z,29.08
2023-02-11T11:37:01.726Z,27.55
2023-02-11T11:39:31.616Z,25.77
2023-02-11T11:42:14.209Z,21.92
2023-02-11T11:44:40.852Z,29.52
2023-02-11T11:47:22.417Z,28.30
2023-02-11T11:50:10.656Z,28.25
2023-02-11T11:52:50.414Z,30.58
2023-02-11T11:55:25.403Z,25.63
2023-02-11T11:57:52.181Z,27.83
2023-02-11T12:00:35.630Z,28.45
2023-02-11T12:03:05.534Z,27.67
2023-02-11T12:05:59.612Z,28.50
2023-02-11T12:08:55.489Z,28.80
2023-02-11T12:11:22.054Z,28.67
2023-02-11T12:13:58.462Z,28.10
2023-02-11T12:16:51.079Z,29.25
2023-02-11T12:19:35.374Z,30.25
2023-02-11T12:22:11.966Z,30.67
2023-02-11T12:24:43.518Z,23.02
2023-02-11T12:27:33.711Z,31.77
2023-02-11T12:30:21.897Z,29.88
2023-02-11T12:33:15.347Z,29.55
2023-02-11T12:35:42.018Z,28.75
2023-02-11T12:38:21.211Z,24.83
2023-02-11T12:40:53.931Z,28.23
2023-02-11T12:43:36.490Z,29.65
2023-02-11T12:46:22.400Z,26.58
2023-02-11T12:49:23.293Z,27.23
2023-02-11T12:51:58.962Z,27.58
2023-02-11T12:54:53.391Z,25.92
2023-02-11T12:57:26.444Z,20.90
2023-02-11T12:59:56.515Z,22.80
2023-02-11T13:02:52.148Z,23.67
2023-02-11T13:05:25.337Z,23.40
2023-02-11T13:07:55.753Z,20.98
2023-02-11T13:10:37.359Z,24.70
2023-02-11T13:13:19.340Z,27.95
2023-02-11T13:15:52.318Z,23.20
2023-02-11T13:18:44.991Z,19.15
2023-02-11T13:21:14.539Z,20.08
2023-02-11T13:23:46.861Z,25.00
2023-02-11T13:26:45.613Z,24.00
2023-02-11T13:29:33.698Z,25.30
2023-02-11T13:32:11.090Z,25.77
2023-02-11T13:34:43.925Z,26.40
2023-02-11T13:37:34.089Z,23.85
2023-02-11T13:40:04.359Z,24.08
2023-02-11T13:42:32.783Z,25.10
2023-02-11T13:44:59.717Z,25.20
2023-02-11T13:47:31.920Z,26.77
2023-02-11T13:50:00.288Z,24.73
2023-02-11T13:52:32.832Z,22.52
2023-02-11T13:55:24.320Z,25.63
2023-02-11T13:58:06.104Z,23.58
2023-02-11T14:00:35.855Z,23.15
2023-02-11T14:03:30.227Z,22.75
2023-02-11T14:06:27.804Z,22.55
2023-02-11T14:09:06.544Z,22.95
2023-02-11T14:11:33.334Z,23.27
2023-02-11T14:14:15.621Z,21.40
2023-02-11T14:17:04.551Z,23.02
2023-02-11T14:19:45.185Z,24.65
2023-02-11T14:22:42.629Z,22.25
2023-02-11T14:25:23.260Z,24.85
2023-02-11T14:27:54.494Z,21.23
2023-02-11T14:30:35.269Z,22.48
2023-02-11T14:33:14.024Z,22.17
2023-02-11T14:36:05.592Z,22.10
2023-02-11T14:39:06.234Z,23.85
2023-02-11T14:41:38.869Z,22.20
2023-02-11T14:44:15.361Z,23.75
2023-02-11T14:46:53.395Z,23.38
2023-02-11T14:49:36.104Z,23.50
2023-02-11T14:52:24.386Z,23.27
2023-02-11T14:54:51.748Z,20.27
2023-02-11T14:57:20.153Z,20.33
2023-02-11T14:59:59.093Z,21.65
2023-02-11T15:02:30.288Z,20.50
2023-02-11T15:05:26.529Z,19.98
2023-02-11T15:07:56.366Z,19.40
2023-02-11T15:10:28.959Z,20.80
2023-02-11T15:12:55.984Z,19.42
2023-02-11T15:15:22.689Z,17.33
2023-02-11T15:17:49.373Z,20.42
2023-02-11T15:20:22.560Z,16.83
2023-02-11T15:22:51.730Z,20.85
2023-02-11T15:25:19.996Z,19.90
2023-02-11T15:27:51.515Z,20.63
2023-02-11T15:30:21.173Z,20.13
2023-02-11T15:33:21.206Z,20.95
2023-02-11T15:35:47.996Z,22.52
2023-02-11T15:38:14.601Z,21.65
2023-02-11T15:40:52.527Z,22.55
2023-02-11T15:43:19.446Z,21.85
2023-02-11T15:45:51.955Z,22.13
2023-02-11T15:48:22.320Z,22.88
2023-02-11T15:50:52.549Z,23.48
2023-02-11T15:53:29.250Z,24.70
2023-02-11T15:56:09.791Z,24.95
2023-02-11T15:58:41.173Z,24.73
2023-02-11T16:01:09.787Z,21.90
2023-02-11T16:03:36.591Z,23.85
2023-02-11T16:06:20.478Z,23.05
2023-02-11T16:09:00.391Z,21.55
2023-02-11T16:11:31.151Z,20.92
2023-02-11T16:14:01.661Z,23.23
2023-02-11T16:16:30.942Z,23.52
2023-02-11T16:19:05.323Z,22.98
2023-02-11T16:21:39.066Z,22.25
2023-02-11T16:24:07.451Z,21.83
2023-02-11T16:26:43.474Z,22.67
2023-02-11T16:29:13.499Z,20.35
2023-02-11T16:31:42.713Z,21.35
2023-02-11T16:34:15.538Z,21.27
2023-02-11T16:36:42.783Z,21.52
2023-02-11T16:39:10.726Z,21.27
2023-02-11T16:41:37.438Z,20.75
2023-02-11T16:44:04.119Z,22.60
2023-02-11T16:46:31.325Z,23.02
2023-02-11T16:48:59.029Z,23.42
2023-02-11T16:51:25.958Z,22.92
2023-02-11T16:53:52.613Z,22.77
2023-02-11T16:56:19.291Z,24.55
2023-02-11T16:58:45.958Z,21.75
2023-02-11T17:01:14.171Z,22.42
2023-02-11T17:03:41.256Z,22.10
2023-02-11T17:06:09.989Z,22.05
2023-02-11T17:08:36.876Z,22.70
2023-02-11T17:11:03.765Z,23.73
2023-02-11T17:13:30.392Z,24.60
2023-02-11T17:15:57.072Z,25.17
2023-02-11T17:18:23.757Z,23.75
2023-02-11T17:20:50.381Z,24.58
2023-02-11T17:23:17.046Z,26.10
2023-02-11T17:25:43.932Z,23.80
2023-02-11T17:28:12.143Z,23.98
2023-02-11T17:30:41.209Z,24.08
2023-02-11T17:33:07.859Z,24.20
2023-02-11T17:35:34.525Z,23.08
2023-02-11T17:38:01.434Z,26.27
2023-02-11T17:40:28.187Z,23.85
2023-02-11T17:42:54.898Z,26.52
2023-02-11T17:45:22.486Z,26.15
2023-02-11T17:47:49.465Z,25.75
2023-02-11T17:50:16.298Z,27.00
2023-02-11T17:52:42.907Z,26.02
2023-02-11T17:55:09.536Z,26.70
2023-02-11T17:57:36.249Z,27.48
2023-02-11T18:00:03.947Z,27.90
2023-02-11T18:02:39.493Z,26.67
2023-02-11T18:05:06.649Z,25.40
2023-02-11T18:07:33.579Z,24.80
2023-02-11T18:10:00.239Z,24.55
2023-02-11T18:12:26.933Z,26.25
2023-02-11T18:14:57.552Z,23.83
2023-02-11T18:17:25.048Z,27.00
2023-02-11T18:19:56.030Z,26.25
2023-02-11T18:22:22.845Z,24.48
2023-02-11T18:24:53.967Z,25.08
2023-02-11T18:27:21.714Z,24.73
2023-02-11T18:29:48.385Z,24.17
2023-02-11T18:32:15.082Z,25.88
2023-02-11T18:34:42.300Z,25.20
2023-02-11T18:37:09.278Z,24.08
2023-02-11T18:39:36.437Z,24.77
2023-02-11T18:42:03.160Z,25.13
2023-02-11T18:44:29.765Z,26.27
2023-02-11T18:46:56.407Z,25.50
2023-02-11T18:49:23.095Z,26.08
2023-02-11T18:51:49.818Z,26.98
2023-02-11T18:54:16.436Z,26.73
2023-02-11T18:56:43.276Z,27.90
2023-02-11T18:59:09.903Z,20.63
2023-02-11T19:01:36.773Z,26.98
2023-02-11T19:04:04.621Z,29.00
2023-02-11T19:06:34.797Z,25.92
2023-02-11T19:09:08.169Z,26.63
2023-02-11T19:11:46.838Z,25.90
2023-02-11T19:14:25.216Z,24.70
2023-02-11T19:16:54.595Z,28.35
2023-02-11T19:19:23.249Z,25.77
2023-02-11T19:21:49.904Z,24.80
2023-02-11T19:24:19.777Z,24.58
2023-02-11T19:26:47.331Z,24.15
2023-02-11T19:29:14.145Z,27.50
2023-02-11T19:31:41.429Z,26.08
2023-02-11T19:34:08.284Z,25.77
2023-02-11T19:36:35.210Z,26.20
2023-02-11T19:39:03.170Z,26.33
2023-02-11T19:41:30.898Z,26.88
2023-02-11T19:43:57.557Z,25.88
2023-02-11T19:46:25.601Z,27.52
2023-02-11T19:48:52.324Z,26.80
2023-02-11T19:51:19.622Z,25.17
2023-02-11T19:53:46.743Z,25.98
2023-02-11T19:56:14.464Z,26.73
2023-02-11T19:58:41.791Z,28.55
2023-02-11T20:01:11.006Z,26.15
2023-02-11T20:03:37.742Z,27.77
2023-02-11T20:06:14.764Z,27.80
2023-02-11T20:08:41.475Z,24.42
2023-02-11T20:11:13.658Z,26.45
2023-02-11T20:13:40.598Z,28.08
2023-02-11T20:16:16.741Z,27.23
2023-02-11T20:18:44.429Z,27.27
2023-02-11T20:21:13.924Z,25.75
2023-02-11T20:23:40.912Z,27.65
2023-02-11T20:26:13.840Z,27.33
2023-02-11T20:28:40.638Z,26.75
2023-02-11T20:31:07.753Z,29.08
2023-02-11T20:33:34.876Z,26.35
2023-02-11T20:36:10.560Z,27.90
2023-02-11T20:38:37.421Z,26.92
2023-02-11T20:41:06.178Z,27.30
2023-02-11T20:43:35.243Z,27.70
2023-02-11T20:46:04.371Z,28.30
2023-02-11T20:48:31.554Z,28.15
2023-02-11T20:51:11.264Z,27.35
2023-02-11T20:53:39.539Z,27.55
2023-02-11T20:56:09.037Z,27.08
2023-02-11T20:58:35.890Z,27.02
2023-02-11T21:01:09.673Z,21.77
2023-02-11T21:03:36.394Z,29.45
2023-02-11T21:06:03.239Z,27.88
2023-02-11T21:08:29.919Z,28.17
2023-02-11T21:10:56.747Z,30.23
2023-02-11T21:13:23.489Z,31.90
2023-02-11T21:15:56.370Z,29.60
2023-02-11T21:18:24.083Z,28.45
2023-02-11T21:20:50.989Z,28.60
2023-02-11T21:23:17.597Z,30.02
2023-02-11T21:25:44.250Z,29.58
2023-02-11T21:28:11.026Z,28.23
2023-02-11T21:30:38.890Z,28.23
2023-02-11T21:33:05.775Z,29.55
2023-02-11T21:35:36.479Z,28.23
2023-02-11T21:38:03.758Z,29.58
2023-02-11T21:40:30.396Z,29.13
2023-02-11T21:42:57.113Z,30.50
2023-02-11T21:45:24.655Z,30.85
2023-02-11T21:47:51.600Z,28.83
2023-02-11T21:50:18.553Z,28.25
2023-02-11T21:52:45.229Z,28.80
2023-02-11T21:55:11.982Z,31.70
2023-02-11T21:57:38.722Z,30.85
2023-02-11T22:00:07.745Z,27.48
2023-02-11T22:02:35.571Z,28.30
2023-02-11T22:05:02.351Z,30.52
2023-02-11T22:07:29.035Z,29.13
2023-02-11T22:09:55.790Z,30.70
2023-02-11T22:12:23.106Z,28.40
2023-02-11T22:14:49.798Z,28.80
2023-02-11T22:17:16.487Z,30.02
2023-02-11T22:19:43.330Z,30.02
2023-02-11T22:22:10.044Z,30.20
2023-02-11T22:24:36.823Z,29.38
2023-02-11T22:27:03.564Z,31.55
2023-02-11T22:29:30.163Z,30.67
2023-02-11T22:31:56.847Z,31.33
2023-02-11T22:34:23.557Z,30.75
2023-02-11T22:36:50.178Z,29.67
2023-02-11T22:39:17.733Z,29.23
2023-02-11T22:41:45.503Z,29.20
2023-02-11T22:44:12.636Z,29.00
2023-02-11T22:46:39.707Z,29.58
2023-02-11T22:49:07.352Z,30.30
2023-02-11T22:51:34.034Z,28.13
2023-02-11T22:54:03.080Z,27.40
2023-02-11T22:56:31.115Z,30.58
2023-02-11T22:58:59.464Z,28.30
2023-02-11T23:01:26.768Z,28.73
2023-02-11T23:03:53.506Z,30.67
2023-02-11T23:06:20.113Z,30.30
2023-02-11T23:08:46.929Z,30.58
2023-02-11T23:11:16.150Z,28.65
2023-02-11T23:13:44.311Z,29.40
2023-02-11T23:16:13.974Z,27.77
2023-02-11T23:18:41.808Z,29.75
2023-02-11T23:21:15.934Z,27.85
2023-02-11T23:23:43.004Z,29.77
2023-02-11T23:26:11.738Z,28.92
2023-02-11T23:28:39.207Z,29.13
2023-02-11T23:31:27.493Z,30.10
2023-02-11T23:33:54.362Z,27.13
2023-02-11T23:36:22.394Z,30.40
2023-02-11T23:38:49.098Z,27.40
2023-02-11T23:41:16.258Z,28.60
2023-02-11T23:43:43.129Z,28.65
2023-02-11T23:46:10.220Z,29.40
2023-02-11T23:48:37.700Z,27.83
2023-02-11T23:51:04.577Z,29.08
2023-02-11T23:53:31.243Z,28.35
2023-02-11T23:55:57.851Z,28.40
2023-02-11T23:58:24.695Z,28.52
